sensor_id;sensor_type;location;lat;lon;timestamp;temperature;humidity
12967;DHT22;6548;49.996;8.238;2024-02-15T06:13:25;9.40;99.90
12967;DHT22;6548;49.996;8.238;2024-02-15T06:15:52;9.40;99.90
12967;DHT22;6548;49.996;8.238;2024-02-15T06:18:29;9.40;99.90
12967;DHT22;6548;49.996;8.238;2024-02-15T06:20:57;9.50;99.90
12967;DHT22;6548;49.996;8.238;2024-02-15T06:23:23;9.50;99.90
12967;DHT22;6548;49.996;8.238;2024-02-15T06:25:51;9.50;99.90
12967;DHT22;6548;49.996;8.238;2024-02-15T06:28:19;9.50;99.90
12967;DHT22;6548;49.996;8.238;2024-02-15T06:31:08;9.50;99.90
12967;DHT22;6548;49.996;8.238;2024-02-15T06:33:52;9.50;99.90
12967;DHT22;6548;49.996;8.238;2024-02-15T06:36:46;9.50;99.90
12967;DHT22;6548;49.996;8.238;2024-02-15T06:39:30;9.60;99.90
12967;DHT22;6548;49.996;8.238;2024-02-15T06:42:13;9.60;99.90
12967;DHT22;6548;49.996;8.238;2024-02-15T06:44:44;9.60;99.90
12967;DHT22;6548;49.996;8.238;2024-02-15T06:47:10;9.60;99.90
12967;DHT22;6548;49.996;8.238;2024-02-15T06:49:40;9.60;99.90
12967;DHT22;6548;49.996;8.238;2024-02-15T06:52:09;9.60;99.90
12967;DHT22;6548;49.996;8.238;2024-02-15T06:54:38;9.60;99.90
12967;DHT22;6548;49.996;8.238;2024-02-15T06:57:04;9.60;99.90
12967;DHT22;6548;49.996;8.238;2024-02-15T06:59:30;9.60;99.90
12967;DHT22;6548;49.996;8.238;2024-02-15T07:01:58;9.60;99.90
12967;DHT22;6548;49.996;8.238;2024-02-15T07:04:23;9.60;99.90
12967;DHT22;6548;49.996;8.238;2024-02-15T07:06:51;9.60;99.90
12967;DHT22;6548;49.996;8.238;2024-02-15T07:09:17;9.60;99.90
12967;DHT22;6548;49.996;8.238;2024-02-15T07:11:46;9.60;99.90
12967;DHT22;6548;49.996;8.238;2024-02-15T07:14:13;9.60;99.90
12967;DHT22;6548;49.996;8.238;2024-02-15T07:16:39;9.60;99.90
12967;DHT22;6548;49.996;8.238;2024-02-15T07:19:04;9.60;99.90
12967;DHT22;6548;49.996;8.238;2024-02-15T07:21:31;9.60;99.90
12967;DHT22;6548;49.996;8.238;2024-02-15T07:23:57;9.60;99.90
12967;DHT22;6548;49.996;8.238;2024-02-15T07:26:24;9.60;99.90
12967;DHT22;6548;49.996;8.238;2024-02-15T07:28:52;9.70;99.90
12967;DHT22;6548;49.996;8.238;2024-02-15T07:31:19;9.70;99.90
12967;DHT22;6548;49.996;8.238;2024-02-15T07:33:47;9.80;99.90
12967;DHT22;6548;49.996;8.238;2024-02-15T07:36:12;9.80;99.90
12967;DHT22;6548;49.996;8.238;2024-02-15T07:38:38;9.80;99.90
12967;DHT22;6548;49.996;8.238;2024-02-15T07:41:04;9.80;99.90
12967;DHT22;6548;49.996;8.238;2024-02-15T07:43:29;9.90;99.90
12967;DHT22;6548;49.996;8.238;2024-02-15T07:45:58;9.90;99.90
12967;DHT22;6548;49.996;8.238;2024-02-15T07:48:24;10.00;99.90
12967;DHT22;6548;49.996;8.238;2024-02-15T07:50:49;10.10;99.90
12967;DHT22;6548;49.996;8.238;2024-02-15T07:53:15;10.10;99.90
12967;DHT22;6548;49.996;8.238;2024-02-15T07:55:41;10.20;99.90
12967;DHT22;6548;49.996;8.238;2024-02-15T07:58:07;10.20;99.90
12967;DHT22;6548;49.996;8.238;2024-02-15T08:00:32;10.20;99.90
12967;DHT22;6548;49.996;8.238;2024-02-15T08:02:58;10.20;99.90
12967;DHT22;6548;49.996;8.238;2024-02-15T08:05:24;10.30;99.90
12967;DHT22;6548;49.996;8.238;2024-02-15T08:07:50;10.40;99.90
12967;DHT22;6548;49.996;8.238;2024-02-15T08:10:16;10.40;99.90
12967;DHT22;6548;49.996;8.238;2024-02-15T08:12:43;10.40;99.90
12967;DHT22;6548;49.996;8.238;2024-02-15T08:15:09;10.40;99.90
12967;DHT22;6548;49.996;8.238;2024-02-15T08:17:44;10.40;99.90
12967;DHT22;6548;49.996;8.238;2024-02-15T08:20:12;10.40;99.90
12967;DHT22;6548;49.996;8.238;2024-02-15T08:22:39;10.40;99.90
12967;DHT22;6548;49.996;8.238;2024-02-15T08:27:32;10.60;99.90
12967;DHT22;6548;49.996;8.238;2024-02-15T08:29:59;10.60;99.90
12967;DHT22;6548;49.996;8.238;2024-02-15T08:32:24;10.70;99.90
12967;DHT22;6548;49.996;8.238;2024-02-15T08:34:50;10.70;99.90
12967;DHT22;6548;49.996;8.238;2024-02-15T08:37:17;10.80;99.90
12967;DHT22;6548;49.996;8.238;2024-02-15T08:39:44;10.90;99.90
12967;DHT22;6548;49.996;8.238;2024-02-15T08:42:10;11.00;99.90
12967;DHT22;6548;49.996;8.238;2024-02-15T08:44:36;11.00;99.90
12967;DHT22;6548;49.996;8.238;2024-02-15T08:47:02;10.90;99.90
12967;DHT22;6548;49.996;8.238;2024-02-15T08:49:27;10.90;99.90
12967;DHT22;6548;49.996;8.238;2024-02-15T08:51:56;10.90;99.90
12967;DHT22;6548;49.996;8.238;2024-02-15T08:54:21;10.90;99.90
12967;DHT22;6548;49.996;8.238;2024-02-15T08:56:47;10.90;99.90
12967;DHT22;6548;49.996;8.238;2024-02-15T08:59:13;11.00;99.90
12967;DHT22;6548;49.996;8.238;2024-02-15T09:01:40;11.20;99.90
12967;DHT22;6548;49.996;8.238;2024-02-15T09:04:06;11.40;99.90
12967;DHT22;6548;49.996;8.238;2024-02-15T09:06:32;11.50;99.90
12967;DHT22;6548;49.996;8.238;2024-02-15T09:08:57;11.60;99.90
12967;DHT22;6548;49.996;8.238;2024-02-15T09:11:28;11.70;99.90
12967;DHT22;6548;49.996;8.238;2024-02-15T09:13:54;11.90;99.90
12967;DHT22;6548;49.996;8.238;2024-02-15T09:16:20;12.00;99.90
12967;DHT22;6548;49.996;8.238;2024-02-15T09:18:47;12.20;99.90
12967;DHT22;6548;49.996;8.238;2024-02-15T09:21:12;12.30;99.90
12967;DHT22;6548;49.996;8.238;2024-02-15T09:23:38;12.30;99.90
12967;DHT22;6548;49.996;8.238;2024-02-15T09:26:04;12.40;99.90
12967;DHT22;6548;49.996;8.238;2024-02-15T09:28:29;12.60;99.90
12967;DHT22;6548;49.996;8.238;2024-02-15T09:30:56;12.60;99.90
12967;DHT22;6548;49.996;8.238;2024-02-15T09:33:24;12.60;99.90
12967;DHT22;6548;49.996;8.238;2024-02-15T09:35:51;12.60;99.90
12967;DHT22;6548;49.996;8.238;2024-02-15T09:38:16;12.80;99.90
12967;DHT22;6548;49.996;8.238;2024-02-15T09:40:43;13.10;99.90
12967;DHT22;6548;49.996;8.238;2024-02-15T09:43:09;13.40;99.90
12967;DHT22;6548;49.996;8.238;2024-02-15T09:45:38;13.70;99.90
12967;DHT22;6548;49.996;8.238;2024-02-15T09:48:06;13.80;99.90
12967;DHT22;6548;49.996;8.238;2024-02-15T09:50:35;13.80;99.90
12967;DHT22;6548;49.996;8.238;2024-02-15T09:53:03;13.70;99.90
12967;DHT22;6548;49.996;8.238;2024-02-15T09:55:34;13.70;99.90
12967;DHT22;6548;49.996;8.238;2024-02-15T09:58:00;13.60;99.90
12967;DHT22;6548;49.996;8.238;2024-02-15T10:00:26;13.70;99.90
12967;DHT22;6548;49.996;8.238;2024-02-15T10:02:55;13.90;99.90
12967;DHT22;6548;49.996;8.238;2024-02-15T10:05:21;14.20;99.90
12967;DHT22;6548;49.996;8.238;2024-02-15T10:07:48;14.20;99.90
12967;DHT22;6548;49.996;8.238;2024-02-15T10:12:45;14.10;99.90
12967;DHT22;6548;49.996;8.238;2024-02-15T10:15:34;14.40;99.90
12967;DHT22;6548;49.996;8.238;2024-02-15T10:18:05;14.90;99.90
12967;DHT22;6548;49.996;8.238;2024-02-15T10:20:33;15.50;99.90
12967;DHT22;6548;49.996;8.238;2024-02-15T10:25:31;16.10;99.90
12967;DHT22;6548;49.996;8.238;2024-02-15T10:28:10;16.60;99.90
12967;DHT22;6548;49.996;8.238;2024-02-15T10:30:43;16.10;99.90
12967;DHT22;6548;49.996;8.238;2024-02-15T10:33:17;16.70;99.90
12967;DHT22;6548;49.996;8.238;2024-02-15T10:35:44;17.80;99.90
12967;DHT22;6548;49.996;8.238;2024-02-15T10:38:11;19.60;99.90
12967;DHT22;6548;49.996;8.238;2024-02-15T10:40:37;20.00;99.90
12967;DHT22;6548;49.996;8.238;2024-02-15T10:43:03;19.10;99.90
12967;DHT22;6548;49.996;8.238;2024-02-15T10:45:31;18.40;99.90
12967;DHT22;6548;49.996;8.238;2024-02-15T10:47:57;17.90;99.90
12967;DHT22;6548;49.996;8.238;2024-02-15T10:50:25;17.60;99.90
12967;DHT22;6548;49.996;8.238;2024-02-15T10:52:58;16.80;99.90
12967;DHT22;6548;49.996;8.238;2024-02-15T10:55:48;16.30;99.90
12967;DHT22;6548;49.996;8.238;2024-02-15T10:58:19;16.00;99.90
12967;DHT22;6548;49.996;8.238;2024-02-15T11:00:47;16.30;99.90
12967;DHT22;6548;49.996;8.238;2024-02-15T11:03:27;18.40;99.90
12967;DHT22;6548;49.996;8.238;2024-02-15T11:05:58;19.50;99.90
12967;DHT22;6548;49.996;8.238;2024-02-15T11:08:26;20.30;99.90
12967;DHT22;6548;49.996;8.238;2024-02-15T11:10:53;21.50;99.90
12967;DHT22;6548;49.996;8.238;2024-02-15T11:13:20;23.10;99.90
12967;DHT22;6548;49.996;8.238;2024-02-15T11:15:46;23.90;99.90
12967;DHT22;6548;49.996;8.238;2024-02-15T11:18:44;23.20;99.90
12967;DHT22;6548;49.996;8.238;2024-02-15T11:21:11;22.60;99.90
12967;DHT22;6548;49.996;8.238;2024-02-15T11:23:37;20.80;99.90
12967;DHT22;6548;49.996;8.238;2024-02-15T11:26:03;19.20;99.90
12967;DHT22;6548;49.996;8.238;2024-02-15T11:30:56;17.90;99.90
12967;DHT22;6548;49.996;8.238;2024-02-15T11:33:30;18.00;99.90
12967;DHT22;6548;49.996;8.238;2024-02-15T11:36:03;18.30;99.90
12967;DHT22;6548;49.996;8.238;2024-02-15T11:38:32;18.10;99.90
12967;DHT22;6548;49.996;8.238;2024-02-15T11:41:00;17.50;99.90
12967;DHT22;6548;49.996;8.238;2024-02-15T11:43:48;17.00;99.90
12967;DHT22;6548;49.996;8.238;2024-02-15T11:46:22;16.90;99.90
12967;DHT22;6548;49.996;8.238;2024-02-15T11:48:51;17.10;99.90
12967;DHT22;6548;49.996;8.238;2024-02-15T11:51:34;17.20;99.90
12967;DHT22;6548;49.996;8.238;2024-02-15T11:54:09;17.60;99.90
12967;DHT22;6548;49.996;8.238;2024-02-15T11:59:09;17.80;99.90
12967;DHT22;6548;49.996;8.238;2024-02-15T12:01:44;17.70;99.90
12967;DHT22;6548;49.996;8.238;2024-02-15T12:04:31;17.50;99.90
12967;DHT22;6548;49.996;8.238;2024-02-15T12:07:16;17.10;99.90
12967;DHT22;6548;49.996;8.238;2024-02-15T12:10:00;16.80;99.90
12967;DHT22;6548;49.996;8.238;2024-02-15T12:12:51;16.40;99.90
12967;DHT22;6548;49.996;8.238;2024-02-15T12:15:38;16.20;99.90
12967;DHT22;6548;49.996;8.238;2024-02-15T12:18:22;16.20;99.90
12967;DHT22;6548;49.996;8.238;2024-02-15T12:21:07;16.20;99.90
12967;DHT22;6548;49.996;8.238;2024-02-15T12:23:38;16.00;99.90
12967;DHT22;6548;49.996;8.238;2024-02-15T12:26:04;15.90;99.90
12967;DHT22;6548;49.996;8.238;2024-02-15T12:28:31;16.00;99.90
12967;DHT22;6548;49.996;8.238;2024-02-15T12:30:57;16.00;99.90
12967;DHT22;6548;49.996;8.238;2024-02-15T12:33:23;15.90;99.90
12967;DHT22;6548;49.996;8.238;2024-02-15T12:35:49;15.90;99.90
12967;DHT22;6548;49.996;8.238;2024-02-15T12:38:18;15.80;99.90
12967;DHT22;6548;49.996;8.238;2024-02-15T12:40:44;15.70;99.90
12967;DHT22;6548;49.996;8.238;2024-02-15T12:43:10;15.60;99.90
12967;DHT22;6548;49.996;8.238;2024-02-15T12:45:39;15.30;99.90
12967;DHT22;6548;49.996;8.238;2024-02-15T12:48:06;15.30;99.90
12967;DHT22;6548;49.996;8.238;2024-02-15T12:50:32;15.30;99.90
12967;DHT22;6548;49.996;8.238;2024-02-15T12:52:58;15.20;99.90
12967;DHT22;6548;49.996;8.238;2024-02-15T12:55:35;15.20;99.90
12967;DHT22;6548;49.996;8.238;2024-02-15T12:58:20;15.30;99.90
12967;DHT22;6548;49.996;8.238;2024-02-15T13:00:45;15.20;99.90
12967;DHT22;6548;49.996;8.238;2024-02-15T13:03:14;15.10;99.90
12967;DHT22;6548;49.996;8.238;2024-02-15T13:05:41;15.10;99.90
12967;DHT22;6548;49.996;8.238;2024-02-15T13:08:07;15.00;99.90
12967;DHT22;6548;49.996;8.238;2024-02-15T13:10:38;15.10;99.90
12967;DHT22;6548;49.996;8.238;2024-02-15T13:13:04;15.20;99.90
12967;DHT22;6548;49.996;8.238;2024-02-15T13:15:31;15.00;99.90
12967;DHT22;6548;49.996;8.238;2024-02-15T13:18:00;15.00;99.90
12967;DHT22;6548;49.996;8.238;2024-02-15T13:20:26;15.00;99.90
12967;DHT22;6548;49.996;8.238;2024-02-15T13:23:00;15.00;99.90
12967;DHT22;6548;49.996;8.238;2024-02-15T13:25:28;15.00;99.90
12967;DHT22;6548;49.996;8.238;2024-02-15T13:27:55;15.00;99.90
12967;DHT22;6548;49.996;8.238;2024-02-15T13:30:21;15.10;99.90
12967;DHT22;6548;49.996;8.238;2024-02-15T13:32:49;15.10;99.90
12967;DHT22;6548;49.996;8.238;2024-02-15T13:35:18;15.10;99.90
12967;DHT22;6548;49.996;8.238;2024-02-15T13:40:14;15.00;99.90
12967;DHT22;6548;49.996;8.238;2024-02-15T13:42:47;15.00;99.90
12967;DHT22;6548;49.996;8.238;2024-02-15T13:47:48;15.00;99.90
12967;DHT22;6548;49.996;8.238;2024-02-15T13:50:14;15.00;99.90
12967;DHT22;6548;49.996;8.238;2024-02-15T13:52:49;15.00;99.90
12967;DHT22;6548;49.996;8.238;2024-02-15T13:55:19;15.00;99.90
12967;DHT22;6548;49.996;8.238;2024-02-15T13:57:47;15.00;99.90
12967;DHT22;6548;49.996;8.238;2024-02-15T14:00:16;15.00;99.90
12967;DHT22;6548;49.996;8.238;2024-02-15T14:02:49;15.10;99.90
12967;DHT22;6548;49.996;8.238;2024-02-15T14:05:15;15.00;99.90
12967;DHT22;6548;49.996;8.238;2024-02-15T14:07:48;15.00;99.90
12967;DHT22;6548;49.996;8.238;2024-02-15T14:10:15;15.00;99.90
12967;DHT22;6548;49.996;8.238;2024-02-15T14:12:44;15.00;99.90
12967;DHT22;6548;49.996;8.238;2024-02-15T14:15:10;15.10;99.90
12967;DHT22;6548;49.996;8.238;2024-02-15T14:17:37;15.10;99.90
12967;DHT22;6548;49.996;8.238;2024-02-15T14:20:03;15.10;99.90
12967;DHT22;6548;49.996;8.238;2024-02-15T14:22:34;15.10;99.90
12967;DHT22;6548;49.996;8.238;2024-02-15T14:24:59;15.10;99.90
12967;DHT22;6548;49.996;8.238;2024-02-15T14:27:25;15.10;99.90
12967;DHT22;6548;49.996;8.238;2024-02-15T14:29:50;15.00;99.90
12967;DHT22;6548;49.996;8.238;2024-02-15T14:32:34;14.90;99.90
12967;DHT22;6548;49.996;8.238;2024-02-15T14:35:18;14.90;99.90
12967;DHT22;6548;49.996;8.238;2024-02-15T14:37:46;14.90;99.90
12967;DHT22;6548;49.996;8.238;2024-02-15T14:40:12;15.00;99.90
12967;DHT22;6548;49.996;8.238;2024-02-15T14:42:40;14.90;99.90
12967;DHT22;6548;49.996;8.238;2024-02-15T14:45:08;14.90;99.90
12967;DHT22;6548;49.996;8.238;2024-02-15T14:47:34;14.90;99.90
12967;DHT22;6548;49.996;8.238;2024-02-15T14:49:59;14.90;99.90
12967;DHT22;6548;49.996;8.238;2024-02-15T14:52:25;14.80;99.90
12967;DHT22;6548;49.996;8.238;2024-02-15T14:54:51;14.70;99.90
12967;DHT22;6548;49.996;8.238;2024-02-15T14:57:17;14.80;99.90
12967;DHT22;6548;49.996;8.238;2024-02-15T14:59:42;14.80;99.90
12967;DHT22;6548;49.996;8.238;2024-02-15T15:02:09;14.80;99.90
12967;DHT22;6548;49.996;8.238;2024-02-15T15:04:34;14.80;99.90
12967;DHT22;6548;49.996;8.238;2024-02-15T15:07:20;14.80;99.90
12967;DHT22;6548;49.996;8.238;2024-02-15T15:10:05;14.70;99.90
12967;DHT22;6548;49.996;8.238;2024-02-15T15:12:49;14.70;99.90
12967;DHT22;6548;49.996;8.238;2024-02-15T15:15:15;14.70;99.90
12967;DHT22;6548;49.996;8.238;2024-02-15T15:17:46;14.60;99.90
12967;DHT22;6548;49.996;8.238;2024-02-15T15:20:12;14.70;99.90
12967;DHT22;6548;49.996;8.238;2024-02-15T15:22:38;14.60;99.90
12967;DHT22;6548;49.996;8.238;2024-02-15T15:25:04;14.60;99.90
12967;DHT22;6548;49.996;8.238;2024-02-15T15:27:30;14.50;99.90
12967;DHT22;6548;49.996;8.238;2024-02-15T15:29:56;14.50;99.90
12967;DHT22;6548;49.996;8.238;2024-02-15T15:32:22;14.40;99.90
12967;DHT22;6548;49.996;8.238;2024-02-15T15:34:48;14.30;99.90
12967;DHT22;6548;49.996;8.238;2024-02-15T15:37:14;14.20;99.90
12967;DHT22;6548;49.996;8.238;2024-02-15T15:39:41;14.20;99.90
12967;DHT22;6548;49.996;8.238;2024-02-15T15:42:07;14.20;99.90
12967;DHT22;6548;49.996;8.238;2024-02-15T15:44:33;14.10;99.90
12967;DHT22;6548;49.996;8.238;2024-02-15T15:46:59;14.10;99.90
12967;DHT22;6548;49.996;8.238;2024-02-15T15:49:25;14.00;99.90
12967;DHT22;6548;49.996;8.238;2024-02-15T15:51:50;14.00;99.90
12967;DHT22;6548;49.996;8.238;2024-02-15T15:54:18;14.00;99.90
12967;DHT22;6548;49.996;8.238;2024-02-15T15:56:45;13.90;99.90
12967;DHT22;6548;49.996;8.238;2024-02-15T15:59:11;13.80;99.90
12967;DHT22;6548;49.996;8.238;2024-02-15T16:01:36;13.80;99.90
12967;DHT22;6548;49.996;8.238;2024-02-15T16:04:03;13.70;99.90
12967;DHT22;6548;49.996;8.238;2024-02-15T16:06:29;13.60;99.90
12967;DHT22;6548;49.996;8.238;2024-02-15T16:08:54;13.60;99.90
12967;DHT22;6548;49.996;8.238;2024-02-15T16:11:20;13.50;99.90
12967;DHT22;6548;49.996;8.238;2024-02-15T16:13:45;13.50;99.90
12967;DHT22;6548;49.996;8.238;2024-02-15T16:16:13;13.50;99.90
12967;DHT22;6548;49.996;8.238;2024-02-15T16:18:39;13.40;99.90
12967;DHT22;6548;49.996;8.238;2024-02-15T16:21:05;13.40;99.90
12967;DHT22;6548;49.996;8.238;2024-02-15T16:23:30;13.20;99.90
12967;DHT22;6548;49.996;8.238;2024-02-15T16:25:56;13.20;99.90
12967;DHT22;6548;49.996;8.238;2024-02-15T16:28:23;13.10;99.90
12967;DHT22;6548;49.996;8.238;2024-02-15T16:30:49;13.10;99.90
12967;DHT22;6548;49.996;8.238;2024-02-15T16:33:15;13.00;99.90
12967;DHT22;6548;49.996;8.238;2024-02-15T16:35:40;13.00;99.90
12967;DHT22;6548;49.996;8.238;2024-02-15T16:38:06;12.90;99.90
12967;DHT22;6548;49.996;8.238;2024-02-15T16:40:32;12.80;99.90
12967;DHT22;6548;49.996;8.238;2024-02-15T16:42:58;12.70;99.90
12967;DHT22;6548;49.996;8.238;2024-02-15T16:45:23;12.70;99.90
12967;DHT22;6548;49.996;8.238;2024-02-15T16:47:54;12.70;99.90
12967;DHT22;6548;49.996;8.238;2024-02-15T16:50:25;12.60;99.90
12967;DHT22;6548;49.996;8.238;2024-02-15T16:52:50;12.50;99.90
12967;DHT22;6548;49.996;8.238;2024-02-15T16:55:17;12.50;99.90
12967;DHT22;6548;49.996;8.238;2024-02-15T16:57:45;12.50;99.90
12967;DHT22;6548;49.996;8.238;2024-02-15T17:00:10;12.40;99.90
12967;DHT22;6548;49.996;8.238;2024-02-15T17:02:41;12.40;99.90
12967;DHT22;6548;49.996;8.238;2024-02-15T17:05:07;12.40;99.90
12967;DHT22;6548;49.996;8.238;2024-02-15T17:07:33;12.40;99.90
12967;DHT22;6548;49.996;8.238;2024-02-15T17:10:00;12.40;99.90
12967;DHT22;6548;49.996;8.238;2024-02-15T17:23:04;12.20;99.90
12967;DHT22;6548;49.996;8.238;2024-02-15T17:25:51;12.20;99.90
12967;DHT22;6548;49.996;8.238;2024-02-15T17:28:19;12.20;99.90
12967;DHT22;6548;49.996;8.238;2024-02-15T17:30:44;12.20;99.90
12967;DHT22;6548;49.996;8.238;2024-02-15T17:33:13;12.10;99.90
12967;DHT22;6548;49.996;8.238;2024-02-15T17:35:39;12.20;99.90
12967;DHT22;6548;49.996;8.238;2024-02-15T17:38:05;12.10;99.90
12967;DHT22;6548;49.996;8.238;2024-02-15T17:40:30;12.10;99.90
12967;DHT22;6548;49.996;8.238;2024-02-15T17:42:57;12.10;99.90
12967;DHT22;6548;49.996;8.238;2024-02-15T17:45:23;12.20;99.90
12967;DHT22;6548;49.996;8.238;2024-02-15T17:47:48;12.20;99.90
12967;DHT22;6548;49.996;8.238;2024-02-15T17:50:15;12.20;99.90
12967;DHT22;6548;49.996;8.238;2024-02-15T17:52:45;12.30;99.90
12967;DHT22;6548;49.996;8.238;2024-02-15T17:55:12;12.20;99.90
12967;DHT22;6548;49.996;8.238;2024-02-15T17:57:39;12.20;99.90
12967;DHT22;6548;49.996;8.238;2024-02-15T18:00:09;12.20;99.90
12967;DHT22;6548;49.996;8.238;2024-02-15T18:02:47;12.20;99.90
12967;DHT22;6548;49.996;8.238;2024-02-15T18:05:13;12.10;99.90
12967;DHT22;6548;49.996;8.238;2024-02-15T18:07:39;12.10;99.90
12967;DHT22;6548;49.996;8.238;2024-02-15T18:10:06;12.10;99.90
12967;DHT22;6548;49.996;8.238;2024-02-15T18:12:38;12.10;99.90
12967;DHT22;6548;49.996;8.238;2024-02-15T18:15:08;12.10;99.90
12967;DHT22;6548;49.996;8.238;2024-02-15T18:17:38;12.10;99.90
12967;DHT22;6548;49.996;8.238;2024-02-15T18:20:07;12.00;99.90
12967;DHT22;6548;49.996;8.238;2024-02-15T18:22:33;12.00;99.90
12967;DHT22;6548;49.996;8.238;2024-02-15T18:24:58;11.90;99.90
12967;DHT22;6548;49.996;8.238;2024-02-15T18:27:24;11.90;99.90
12967;DHT22;6548;49.996;8.238;2024-02-15T18:29:50;11.90;99.90
12967;DHT22;6548;49.996;8.238;2024-02-15T18:32:15;11.80;99.90
12967;DHT22;6548;49.996;8.238;2024-02-15T18:34:43;11.70;99.90
12967;DHT22;6548;49.996;8.238;2024-02-15T18:37:08;11.80;99.90
12967;DHT22;6548;49.996;8.238;2024-02-15T18:39:35;11.80;99.90
12967;DHT22;6548;49.996;8.238;2024-02-15T18:42:01;11.80;99.90
12967;DHT22;6548;49.996;8.238;2024-02-15T18:44:32;11.80;99.90
12967;DHT22;6548;49.996;8.238;2024-02-15T18:46:58;11.80;99.90
12967;DHT22;6548;49.996;8.238;2024-02-15T18:49:24;11.70;99.90
12967;DHT22;6548;49.996;8.238;2024-02-15T18:51:50;11.70;99.90
12967;DHT22;6548;49.996;8.238;2024-02-15T18:54:17;11.70;99.90
12967;DHT22;6548;49.996;8.238;2024-02-15T18:56:47;11.70;99.90
12967;DHT22;6548;49.996;8.238;2024-02-15T18:59:15;11.70;99.90
12967;DHT22;6548;49.996;8.238;2024-02-15T19:01:41;11.70;99.90
12967;DHT22;6548;49.996;8.238;2024-02-15T19:04:06;11.70;99.90
12967;DHT22;6548;49.996;8.238;2024-02-15T19:06:32;11.60;99.90
12967;DHT22;6548;49.996;8.238;2024-02-15T19:09:06;11.50;99.90
12967;DHT22;6548;49.996;8.238;2024-02-15T19:11:32;11.50;99.90
12967;DHT22;6548;49.996;8.238;2024-02-15T19:13:57;11.60;99.90
12967;DHT22;6548;49.996;8.238;2024-02-15T19:16:23;11.70;99.90
12967;DHT22;6548;49.996;8.238;2024-02-15T19:18:50;11.60;99.90
12967;DHT22;6548;49.996;8.238;2024-02-15T19:21:17;11.60;99.90
12967;DHT22;6548;49.996;8.238;2024-02-15T19:23:42;11.60;99.90
12967;DHT22;6548;49.996;8.238;2024-02-15T19:26:11;11.60;99.90
12967;DHT22;6548;49.996;8.238;2024-02-15T19:28:37;11.60;99.90
12967;DHT22;6548;49.996;8.238;2024-02-15T19:31:03;11.60;99.90
12967;DHT22;6548;49.996;8.238;2024-02-15T19:33:29;11.60;99.90
12967;DHT22;6548;49.996;8.238;2024-02-15T19:35:55;11.60;99.90
12967;DHT22;6548;49.996;8.238;2024-02-15T19:38:20;11.50;99.90
12967;DHT22;6548;49.996;8.238;2024-02-15T19:40:46;11.50;99.90
12967;DHT22;6548;49.996;8.238;2024-02-15T19:43:12;11.50;99.90
12967;DHT22;6548;49.996;8.238;2024-02-15T19:45:39;11.40;99.90
12967;DHT22;6548;49.996;8.238;2024-02-15T19:48:08;11.50;99.90
12967;DHT22;6548;49.996;8.238;2024-02-15T19:50:35;11.40;99.90
12967;DHT22;6548;49.996;8.238;2024-02-15T19:53:01;11.40;99.90
12967;DHT22;6548;49.996;8.238;2024-02-15T19:55:27;11.40;99.90
12967;DHT22;6548;49.996;8.238;2024-02-15T19:57:53;11.40;99.90
12967;DHT22;6548;49.996;8.238;2024-02-15T20:00:19;11.40;99.90
12967;DHT22;6548;49.996;8.238;2024-02-15T20:02:44;11.40;99.90
12967;DHT22;6548;49.996;8.238;2024-02-15T20:05:11;11.40;99.90
12967;DHT22;6548;49.996;8.238;2024-02-15T20:07:37;11.40;99.90
12967;DHT22;6548;49.996;8.238;2024-02-15T20:10:03;11.40;99.90
12967;DHT22;6548;49.996;8.238;2024-02-15T20:12:30;11.40;99.90
12967;DHT22;6548;49.996;8.238;2024-02-15T20:14:55;11.40;99.90
12967;DHT22;6548;49.996;8.238;2024-02-15T20:17:21;11.40;99.90
12967;DHT22;6548;49.996;8.238;2024-02-15T20:19:48;11.50;99.90
12967;DHT22;6548;49.996;8.238;2024-02-15T20:22:14;11.50;99.90
12967;DHT22;6548;49.996;8.238;2024-02-15T20:24:40;11.60;99.90
12967;DHT22;6548;49.996;8.238;2024-02-15T20:27:06;11.60;99.90
12967;DHT22;6548;49.996;8.238;2024-02-15T20:29:31;11.60;99.90
12967;DHT22;6548;49.996;8.238;2024-02-15T20:31:58;11.40;99.90
12967;DHT22;6548;49.996;8.238;2024-02-15T20:34:24;11.50;99.90
12967;DHT22;6548;49.996;8.238;2024-02-15T20:36:49;11.40;99.90
12967;DHT22;6548;49.996;8.238;2024-02-15T20:39:15;11.40;99.90
12967;DHT22;6548;49.996;8.238;2024-02-15T20:41:41;11.30;99.90
12967;DHT22;6548;49.996;8.238;2024-02-15T20:44:11;11.30;99.90
12967;DHT22;6548;49.996;8.238;2024-02-15T20:46:38;11.30;99.90
12967;DHT22;6548;49.996;8.238;2024-02-15T20:49:03;11.20;99.90
12967;DHT22;6548;49.996;8.238;2024-02-15T20:51:29;11.20;99.90
12967;DHT22;6548;49.996;8.238;2024-02-15T20:53:55;11.20;99.90
12967;DHT22;6548;49.996;8.238;2024-02-15T20:56:22;11.20;99.90
12967;DHT22;6548;49.996;8.238;2024-02-15T20:58:48;11.10;99.90
12967;DHT22;6548;49.996;8.238;2024-02-15T21:01:18;11.10;99.90
12967;DHT22;6548;49.996;8.238;2024-02-15T21:03:44;11.10;99.90
12967;DHT22;6548;49.996;8.238;2024-02-15T21:06:19;11.10;99.90
12967;DHT22;6548;49.996;8.238;2024-02-15T21:08:54;11.10;99.90
12967;DHT22;6548;49.996;8.238;2024-02-15T21:11:24;11.10;99.90
12967;DHT22;6548;49.996;8.238;2024-02-15T21:13:52;11.10;99.90
12967;DHT22;6548;49.996;8.238;2024-02-15T21:16:19;11.10;99.90
12967;DHT22;6548;49.996;8.238;2024-02-15T21:18:46;11.10;99.90
12967;DHT22;6548;49.996;8.238;2024-02-15T21:21:12;11.10;99.90
12967;DHT22;6548;49.996;8.238;2024-02-15T21:23:38;11.10;99.90
12967;DHT22;6548;49.996;8.238;2024-02-15T21:26:03;11.10;99.90
12967;DHT22;6548;49.996;8.238;2024-02-15T21:28:34;11.10;99.90
12967;DHT22;6548;49.996;8.238;2024-02-15T21:31:03;11.10;99.90
12967;DHT22;6548;49.996;8.238;2024-02-15T21:33:29;11.10;99.90
12967;DHT22;6548;49.996;8.238;2024-02-15T21:35:54;11.10;99.90
12967;DHT22;6548;49.996;8.238;2024-02-15T21:38:20;11.10;99.90
12967;DHT22;6548;49.996;8.238;2024-02-15T21:40:46;11.00;99.90
12967;DHT22;6548;49.996;8.238;2024-02-15T21:43:12;11.00;99.90
12967;DHT22;6548;49.996;8.238;2024-02-15T21:45:38;10.90;99.90
12967;DHT22;6548;49.996;8.238;2024-02-15T21:48:04;10.90;99.90
12967;DHT22;6548;49.996;8.238;2024-02-15T21:50:29;10.80;99.90
12967;DHT22;6548;49.996;8.238;2024-02-15T21:52:55;10.80;99.90
12967;DHT22;6548;49.996;8.238;2024-02-15T21:55:21;10.70;99.90
12967;DHT22;6548;49.996;8.238;2024-02-15T21:57:47;10.60;99.90
12967;DHT22;6548;49.996;8.238;2024-02-15T22:00:13;10.60;99.90
12967;DHT22;6548;49.996;8.238;2024-02-15T22:02:38;10.60;99.90
12967;DHT22;6548;49.996;8.238;2024-02-15T22:05:06;10.50;99.90
12967;DHT22;6548;49.996;8.238;2024-02-15T22:07:31;10.50;99.90
12967;DHT22;6548;49.996;8.238;2024-02-15T22:09:57;10.50;99.90
12967;DHT22;6548;49.996;8.238;2024-02-15T22:12:23;10.60;99.90
12967;DHT22;6548;49.996;8.238;2024-02-15T22:14:49;10.60;99.90
12967;DHT22;6548;49.996;8.238;2024-02-15T22:17:17;10.60;99.90
12967;DHT22;6548;49.996;8.238;2024-02-15T22:19:42;10.70;99.90
12967;DHT22;6548;49.996;8.238;2024-02-15T22:22:09;10.60;99.90
12967;DHT22;6548;49.996;8.238;2024-02-15T22:24:35;10.60;99.90
12967;DHT22;6548;49.996;8.238;2024-02-15T22:27:01;10.60;99.90
12967;DHT22;6548;49.996;8.238;2024-02-15T22:29:27;10.50;99.90
12967;DHT22;6548;49.996;8.238;2024-02-15T22:31:52;10.60;99.90
12967;DHT22;6548;49.996;8.238;2024-02-15T22:34:20;10.60;99.90